createdAt,value
2017-07-20T00:00:34.174Z,76.0
2017-07-20T00:03:05.951Z,75.6
2017-07-20T00:05:37.649Z,76.2
2017-07-20T00:08:09.400Z,75.7
2017-07-20T00:10:41.099Z,75.8
2017-07-20T00:13:12.832Z,75.9
2017-07-20T00:15:44.557Z,76.2
2017-07-20T00:18:16.298Z,76.0
2017-07-20T00:20:48.054Z,75.7
2017-07-20T00:23:19.807Z,75.6
2017-07-20T00:25:51.531Z,75.9
2017-07-20T00:28:23.296Z,75.5
2017-07-20T00:30:55.012Z,75.4
2017-07-20T00:33:26.797Z,75.9
2017-07-20T00:35:58.495Z,75.8
2017-07-20T00:38:30.234Z,75.7
2017-07-20T00:41:01.956Z,76.1
2017-07-20T00:43:33.681Z,75.4
2017-07-20T00:46:05.389Z,75.7
2017-07-20T00:48:37.127Z,75.8
2017-07-20T00:51:08.855Z,75.5
2017-07-20T00:53:40.619Z,75.8
2017-07-20T00:56:12.349Z,75.8
2017-07-20T00:58:44.133Z,75.5
2017-07-20T01:01:15.843Z,76.2
2017-07-20T01:03:47.606Z,75.7
2017-07-20T01:06:19.368Z,76.0
2017-07-20T01:08:51.161Z,76.2
2017-07-20T01:11:22.896Z,76.1
2017-07-20T01:13:54.679Z,76.2
2017-07-20T01:16:26.465Z,76.0
2017-07-20T01:18:58.260Z,76.1
2017-07-20T01:21:30.019Z,76.1
2017-07-20T01:24:01.783Z,76.0
2017-07-20T01:26:33.540Z,76.0
2017-07-20T01:29:05.259Z,76.1
2017-07-20T01:31:36.976Z,76.0
2017-07-20T01:34:08.716Z,76.1
2017-07-20T01:36:40.439Z,76.1
2017-07-20T01:39:12.221Z,75.9
2017-07-20T01:41:43.970Z,75.9
2017-07-20T01:44:15.735Z,75.9
2017-07-20T01:46:47.460Z,76.1
2017-07-20T01:49:19.230Z,76.2
2017-07-20T01:51:50.921Z,76.1
2017-07-20T01:54:22.658Z,76.1
2017-07-20T01:56:54.362Z,76.1
2017-07-20T01:59:26.138Z,76.2
2017-07-20T02:01:57.867Z,76.1
2017-07-20T02:04:29.591Z,75.9
2017-07-20T02:07:01.285Z,75.9
2017-07-20T02:09:33.032Z,76.1
2017-07-20T02:12:04.726Z,76.0
2017-07-20T02:14:36.461Z,76.5
2017-07-20T02:17:08.159Z,75.9
2017-07-20T02:19:39.896Z,75.9
2017-07-20T02:22:11.600Z,76.0
2017-07-20T02:24:43.339Z,76.7
2017-07-20T02:27:15.061Z,76.5
2017-07-20T02:29:46.794Z,76.5
2017-07-20T02:32:18.505Z,76.3
2017-07-20T02:34:50.255Z,76.4
2017-07-20T02:37:21.966Z,76.9
2017-07-20T02:39:53.694Z,76.5
2017-07-20T02:42:25.395Z,76.6
2017-07-20T02:44:57.139Z,76.5
2017-07-20T02:47:28.838Z,76.3
2017-07-20T02:50:00.582Z,76.3
2017-07-20T02:52:32.319Z,76.8
2017-07-20T02:55:04.082Z,76.6
2017-07-20T02:57:35.794Z,76.7
2017-07-20T03:00:07.554Z,76.5
2017-07-20T03:02:39.271Z,76.5
2017-07-20T03:05:11.025Z,76.6
2017-07-20T03:07:42.733Z,77.1
2017-07-20T03:10:14.529Z,76.6
2017-07-20T03:12:46.263Z,76.4
2017-07-20T03:15:18.008Z,76.9
2017-07-20T03:17:49.714Z,76.9
2017-07-20T03:20:21.449Z,77.0
2017-07-20T03:22:53.146Z,77.2
2017-07-20T03:25:24.889Z,76.5
2017-07-20T03:27:56.609Z,76.7
2017-07-20T03:30:28.349Z,76.6
2017-07-20T03:33:00.053Z,76.6
2017-07-20T03:35:31.778Z,76.3
2017-07-20T03:38:03.476Z,76.5
2017-07-20T03:40:35.229Z,76.7
2017-07-20T03:43:06.936Z,76.6
2017-07-20T03:45:38.669Z,76.6
2017-07-20T03:48:10.382Z,76.9
2017-07-20T03:50:42.115Z,76.5
2017-07-20T03:53:13.828Z,76.4
2017-07-20T03:55:45.573Z,76.7
2017-07-20T03:58:17.255Z,76.5
2017-07-20T04:00:49.004Z,76.6
2017-07-20T04:03:20.714Z,76.8
2017-07-20T04:05:52.448Z,76.0
2017-07-20T04:08:24.140Z,76.6
2017-07-20T04:10:55.904Z,76.1
2017-07-20T04:13:28.641Z,76.7
2017-07-20T04:16:00.423Z,76.0
2017-07-20T04:18:32.186Z,76.0
2017-07-20T04:21:03.989Z,76.1
2017-07-20T04:23:35.683Z,76.5
2017-07-20T04:26:07.418Z,76.9
2017-07-20T04:28:39.120Z,76.6
2017-07-20T04:31:10.870Z,75.8
2017-07-20T04:33:42.585Z,75.7
2017-07-20T04:36:14.315Z,76.9
2017-07-20T04:38:46.075Z,76.8
2017-07-20T04:41:17.819Z,77.0
2017-07-20T04:43:49.531Z,76.7
2017-07-20T04:46:21.290Z,76.7
2017-07-20T04:48:53.042Z,76.9
2017-07-20T04:51:24.824Z,77.4
2017-07-20T04:53:56.551Z,77.1
2017-07-20T04:56:28.306Z,78.3
2017-07-20T04:59:00.012Z,78.2
2017-07-20T05:01:31.786Z,77.6
2017-07-20T05:04:03.522Z,77.8
2017-07-20T05:06:35.266Z,77.5
2017-07-20T05:09:06.992Z,78.1
2017-07-20T05:11:39.679Z,78.1
2017-07-20T05:14:11.407Z,77.8
2017-07-20T05:16:43.157Z,77.6
2017-07-20T05:19:14.934Z,77.6
2017-07-20T05:21:46.701Z,77.6
2017-07-20T05:24:18.441Z,76.8
2017-07-20T05:26:50.198Z,76.9
2017-07-20T05:29:21.925Z,77.9
2017-07-20T05:31:53.713Z,77.5
2017-07-20T05:34:25.434Z,78.1
2017-07-20T05:36:57.225Z,78.0
2017-07-20T05:39:28.968Z,77.9
2017-07-20T05:42:00.741Z,78.3
2017-07-20T05:44:32.489Z,77.9
2017-07-20T05:47:04.269Z,77.6
2017-07-20T05:49:36.024Z,77.6
2017-07-20T05:52:07.755Z,76.6
2017-07-20T05:54:39.462Z,76.6
2017-07-20T05:57:11.221Z,77.2
2017-07-20T05:59:42.928Z,77.7
2017-07-20T06:02:14.669Z,77.4
2017-07-20T06:04:46.394Z,77.7
2017-07-20T06:07:18.178Z,78.1
2017-07-20T06:09:49.934Z,77.5
2017-07-20T06:12:21.712Z,78.1
2017-07-20T06:14:53.530Z,77.8
2017-07-20T06:17:25.289Z,77.8
2017-07-20T06:19:57.033Z,77.2
2017-07-20T06:22:28.765Z,76.6
2017-07-20T06:25:00.476Z,76.0
2017-07-20T06:27:32.240Z,76.2
2017-07-20T06:30:03.950Z,76.0
2017-07-20T06:32:35.693Z,76.5
2017-07-20T06:35:07.396Z,76.1
2017-07-20T06:37:39.172Z,76.2
2017-07-20T06:40:10.875Z,76.2
2017-07-20T06:42:42.611Z,80.1
2017-07-20T06:45:14.320Z,79.8
2017-07-20T06:47:46.075Z,79.5
2017-07-20T06:50:17.789Z,81.9
2017-07-20T06:52:49.540Z,79.7
2017-07-20T06:55:21.373Z,78.9
2017-07-20T06:57:53.147Z,79.7
2017-07-20T07:00:24.864Z,78.5
2017-07-20T07:02:56.621Z,80.2
2017-07-20T07:05:28.333Z,77.2
2017-07-20T07:08:00.075Z,77.5
2017-07-20T07:10:31.780Z,77.6
2017-07-20T07:13:03.553Z,77.4
2017-07-20T07:15:35.273Z,77.8
2017-07-20T07:18:07.020Z,77.9
2017-07-20T07:20:38.753Z,81.0
2017-07-20T07:23:11.321Z,80.3
2017-07-20T07:25:43.037Z,79.2
2017-07-20T07:28:14.896Z,79.0
2017-07-20T07:30:46.599Z,78.0
2017-07-20T07:33:18.355Z,77.6
2017-07-20T07:35:50.084Z,77.2
2017-07-20T07:38:21.849Z,77.8
2017-07-20T07:40:53.582Z,77.6
2017-07-20T07:43:25.384Z,77.6
2017-07-20T07:45:57.113Z,78.1
2017-07-20T07:48:28.908Z,77.1
2017-07-20T07:51:00.679Z,77.9
2017-07-20T07:53:32.512Z,76.7
2017-07-20T07:56:04.296Z,76.0
2017-07-20T07:58:36.139Z,76.2
2017-07-20T08:01:07.954Z,76.2
2017-07-20T08:03:39.818Z,76.2
2017-07-20T08:06:11.677Z,76.1
2017-07-20T08:08:43.535Z,75.3
2017-07-20T08:11:15.400Z,75.8
2017-07-20T08:13:47.212Z,75.9
2017-07-20T08:16:18.975Z,75.8
2017-07-20T08:18:50.908Z,76.0
2017-07-20T08:21:22.657Z,75.9
2017-07-20T08:23:54.551Z,76.0
2017-07-20T08:26:26.313Z,76.0
2017-07-20T08:28:58.085Z,75.8
2017-07-20T08:31:29.848Z,75.7
2017-07-20T08:34:01.650Z,75.7
2017-07-20T08:36:33.442Z,75.9
2017-07-20T08:39:05.260Z,75.5
2017-07-20T08:41:37.212Z,74.8
2017-07-20T08:44:09.917Z,74.7
2017-07-20T08:46:41.628Z,74.9
2017-07-20T08:49:13.792Z,75.0
2017-07-20T08:51:46.081Z,74.7
2017-07-20T08:54:18.956Z,74.3
2017-07-20T08:56:51.654Z,74.3
2017-07-20T08:59:23.585Z,74.5
2017-07-20T09:01:55.314Z,74.6
2017-07-20T09:04:27.073Z,74.5
2017-07-20T09:06:58.812Z,74.3
2017-07-20T09:09:30.622Z,74.7
2017-07-20T09:12:02.458Z,74.5
2017-07-20T09:14:34.291Z,74.4
2017-07-20T09:17:06.039Z,74.3
2017-07-20T09:19:37.847Z,74.7
2017-07-20T09:22:09.589Z,74.1
2017-07-20T09:24:41.404Z,73.6
2017-07-20T09:27:13.148Z,73.9
2017-07-20T09:29:45.162Z,73.8
2017-07-20T09:32:16.910Z,73.8
2017-07-20T09:34:48.702Z,73.7
2017-07-20T09:37:20.463Z,74.0
2017-07-20T09:39:52.271Z,73.5
2017-07-20T09:42:24.124Z,73.1
2017-07-20T09:44:55.934Z,74.0
2017-07-20T09:47:27.688Z,73.6
2017-07-20T09:49:59.451Z,74.5
2017-07-20T09:52:31.516Z,74.4
2017-07-20T09:55:03.367Z,74.4
2017-07-20T09:57:35.128Z,74.3
2017-07-20T10:00:07.036Z,74.5
2017-07-20T10:02:38.837Z,75.3
2017-07-20T10:05:13.545Z,75.6
2017-07-20T10:07:45.324Z,75.1
2017-07-20T10:10:17.066Z,75.1
2017-07-20T10:12:48.783Z,74.9
2017-07-20T10:15:20.524Z,74.3
2017-07-20T10:17:52.305Z,74.0
2017-07-20T10:20:24.055Z,73.2
2017-07-20T10:22:55.774Z,73.8
2017-07-20T10:25:27.506Z,74.7
2017-07-20T10:27:59.216Z,71.3
2017-07-20T10:30:30.952Z,72.5
2017-07-20T10:33:02.688Z,72.9
2017-07-20T10:35:35.651Z,72.9
2017-07-20T10:38:07.613Z,72.9
2017-07-20T10:40:39.429Z,73.0
2017-07-20T10:43:11.191Z,72.0
2017-07-20T10:45:43.021Z,71.4
2017-07-20T10:48:14.820Z,72.0
2017-07-20T10:50:46.618Z,71.3
2017-07-20T10:53:18.400Z,70.9
2017-07-20T10:55:50.185Z,70.9
2017-07-20T10:58:21.958Z,69.7
2017-07-20T11:00:53.911Z,69.7
2017-07-20T11:03:25.716Z,69.1
2017-07-20T11:05:57.495Z,68.4
2017-07-20T11:08:29.236Z,68.4
2017-07-20T11:11:00.982Z,68.3
2017-07-20T11:13:33.373Z,68.3
2017-07-20T11:16:05.123Z,68.7
2017-07-20T11:18:36.844Z,69.1
2017-07-20T11:21:08.582Z,68.8
2017-07-20T11:23:40.379Z,68.5
2017-07-20T11:26:12.309Z,67.8
2017-07-20T11:28:44.055Z,67.2
2017-07-20T11:31:16.889Z,66.3
2017-07-20T11:33:48.659Z,65.8
2017-07-20T11:36:20.483Z,65.2
2017-07-20T11:38:52.204Z,65.9
2017-07-20T11:41:24.121Z,63.4
2017-07-20T11:43:55.957Z,63.7
2017-07-20T11:46:27.722Z,65.1
2017-07-20T11:49:00.213Z,63.9
2017-07-20T11:51:31.877Z,63.9
2017-07-20T11:54:03.603Z,65.3
2017-07-20T11:56:35.358Z,64.7
2017-07-20T11:59:07.066Z,64.8
2017-07-20T12:01:39.404Z,65.7
2017-07-20T12:04:11.798Z,65.7
2017-07-20T12:06:44.386Z,65.8
2017-07-20T12:09:16.114Z,65.0
2017-07-20T12:11:47.868Z,64.6
2017-07-20T12:14:21.390Z,64.6
2017-07-20T12:16:56.893Z,63.7
2017-07-20T12:19:30.443Z,62.9
2017-07-20T12:22:05.624Z,61.4
2017-07-20T12:24:43.608Z,60.8
2017-07-20T12:27:18.164Z,62.7
2017-07-20T12:29:52.737Z,59.1
2017-07-20T12:32:24.518Z,62.1
2017-07-20T12:34:56.223Z,60.4
2017-07-20T12:37:27.984Z,61.8
2017-07-20T12:39:59.728Z,61.7
2017-07-20T12:42:31.782Z,60.6
2017-07-20T12:45:03.537Z,62.0
2017-07-20T12:47:35.330Z,59.9
2017-07-20T12:50:07.125Z,63.3
2017-07-20T12:52:39.118Z,62.8
2017-07-20T12:55:11.641Z,62.9
2017-07-20T12:57:43.465Z,63.6
2017-07-20T13:00:17.081Z,63.7
2017-07-20T13:02:50.008Z,63.8
2017-07-20T13:05:21.727Z,63.7
2017-07-20T13:07:54.669Z,63.5
2017-07-20T13:10:26.834Z,64.2
2017-07-20T13:12:58.572Z,63.9
2017-07-20T13:15:30.303Z,64.1
2017-07-20T13:18:02.084Z,64.0
2017-07-20T13:20:34.937Z,63.8
2017-07-20T13:23:06.705Z,64.0
2017-07-20T13:25:38.451Z,63.6
2017-07-20T13:28:10.462Z,63.8
2017-07-20T13:30:42.192Z,64.2
2017-07-20T13:33:14.005Z,63.8
2017-07-20T13:35:46.748Z,63.5
2017-07-20T13:38:19.882Z,63.8
2017-07-20T13:40:51.618Z,64.0
2017-07-20T13:43:23.606Z,63.6
2017-07-20T13:45:55.339Z,63.4
2017-07-20T13:48:27.701Z,63.6
2017-07-20T13:50:59.432Z,63.0
2017-07-20T13:53:31.963Z,63.1
2017-07-20T13:56:04.740Z,63.4
2017-07-20T13:58:37.645Z,63.2
2017-07-20T14:01:10.574Z,63.7
2017-07-20T14:03:43.526Z,63.5
2017-07-20T14:06:16.496Z,63.5
2017-07-20T14:08:49.322Z,62.9
2017-07-20T14:11:22.489Z,63.0
2017-07-20T14:13:56.450Z,62.9
2017-07-20T14:16:28.773Z,62.9
2017-07-20T14:19:01.066Z,63.1
2017-07-20T14:21:33.912Z,63.2
2017-07-20T14:24:05.883Z,62.7
2017-07-20T14:26:37.635Z,63.5
2017-07-20T14:29:11.172Z,63.4
2017-07-20T14:31:43.067Z,63.8
2017-07-20T14:34:14.832Z,63.5
2017-07-20T14:36:46.583Z,63.7
2017-07-20T14:39:18.395Z,64.0
2017-07-20T14:41:50.147Z,64.3
2017-07-20T14:44:21.909Z,64.1
2017-07-20T14:46:53.645Z,63.6
2017-07-20T14:49:25.399Z,63.8
2017-07-20T14:51:59.499Z,63.8
2017-07-20T14:54:32.018Z,64.2
2017-07-20T14:57:05.153Z,64.2
2017-07-20T14:59:38.170Z,63.7
2017-07-20T15:02:09.888Z,63.4
2017-07-20T15:04:42.928Z,63.8
2017-07-20T15:07:14.982Z,63.7
2017-07-20T15:09:47.554Z,63.8
2017-07-20T15:12:20.705Z,63.6
2017-07-20T15:14:52.452Z,63.6
2017-07-20T15:17:24.176Z,63.5
2017-07-20T15:19:57.048Z,63.7
2017-07-20T15:22:29.457Z,63.5
2017-07-20T15:25:01.208Z,63.1
2017-07-20T15:27:33.966Z,64.0
2017-07-20T15:30:07.808Z,63.2
2017-07-20T15:32:40.729Z,61.3
2017-07-20T15:35:12.623Z,61.0
2017-07-20T15:37:44.452Z,61.0
2017-07-20T15:40:16.781Z,59.5
2017-07-20T15:42:48.839Z,60.0
2017-07-20T15:45:21.521Z,58.1
2017-07-20T15:47:54.271Z,59.6
2017-07-20T15:50:28.675Z,58.7
2017-07-20T15:53:01.873Z,57.8
2017-07-20T15:55:37.050Z,58.0
2017-07-20T15:58:10.367Z,58.6
2017-07-20T16:00:47.232Z,58.4
2017-07-20T16:03:20.247Z,57.4
2017-07-20T16:05:53.841Z,56.9
2017-07-20T16:08:27.703Z,57.6
2017-07-20T16:11:01.252Z,57.9
2017-07-20T16:13:36.254Z,58.8
2017-07-20T16:16:08.772Z,57.4
2017-07-20T16:18:41.777Z,58.9
2017-07-20T16:21:15.351Z,58.6
2017-07-20T16:23:48.291Z,56.8
2017-07-20T16:26:20.094Z,56.9
2017-07-20T16:28:51.922Z,56.7
2017-07-20T16:31:23.684Z,56.6
2017-07-20T16:33:55.480Z,55.7
2017-07-20T16:36:27.235Z,55.5
2017-07-20T16:38:58.960Z,55.8
2017-07-20T16:41:30.786Z,55.8
2017-07-20T16:44:02.495Z,55.4
2017-07-20T16:46:34.238Z,55.5
2017-07-20T16:49:05.943Z,54.7
2017-07-20T16:51:37.803Z,55.1
2017-07-20T16:54:09.549Z,55.0
2017-07-20T16:56:41.347Z,54.6
2017-07-20T16:59:13.105Z,55.5
2017-07-20T17:01:44.889Z,56.3
2017-07-20T17:04:16.626Z,56.9
2017-07-20T17:06:48.388Z,56.9
2017-07-20T17:09:20.119Z,56.9
2017-07-20T17:11:51.897Z,57.1
2017-07-20T17:14:24.306Z,56.6
2017-07-20T17:16:56.073Z,56.5
2017-07-20T17:19:27.855Z,56.5
2017-07-20T17:22:00.564Z,56.9
2017-07-20T17:24:32.349Z,56.9
2017-07-20T17:27:04.145Z,57.4
2017-07-20T17:29:37.846Z,57.5
2017-07-20T17:32:11.106Z,58.0
2017-07-20T17:34:43.799Z,57.4
2017-07-20T17:37:15.582Z,59.8
2017-07-20T17:39:47.387Z,60.5
2017-07-20T17:42:19.205Z,60.7
2017-07-20T17:44:50.901Z,60.7
2017-07-20T17:47:22.726Z,61.0
2017-07-20T17:49:54.545Z,61.7
2017-07-20T17:52:27.019Z,61.7
2017-07-20T17:54:59.101Z,60.7
2017-07-20T17:57:33.806Z,60.6
2017-07-20T18:00:06.143Z,59.8
2017-07-20T18:02:37.957Z,59.8
2017-07-20T18:05:10.624Z,60.7
2017-07-20T18:07:42.606Z,58.9
2017-07-20T18:10:14.353Z,58.9
2017-07-20T18:12:47.784Z,58.6
2017-07-20T18:15:21.350Z,59.5
2017-07-20T18:17:55.231Z,59.4
2017-07-20T18:20:28.020Z,59.1
2017-07-20T18:22:59.822Z,59.4
2017-07-20T18:25:32.687Z,59.9
2017-07-20T18:28:05.641Z,60.3
2017-07-20T18:30:38.789Z,59.9
2017-07-20T18:33:11.870Z,60.7
2017-07-20T18:35:43.767Z,60.5
2017-07-20T18:38:17.267Z,60.4
2017-07-20T18:40:49.024Z,60.8
2017-07-20T18:43:21.218Z,60.6
2017-07-20T18:45:53.707Z,61.8
2017-07-20T18:48:28.021Z,61.8
2017-07-20T18:51:00.184Z,61.8
2017-07-20T18:53:32.799Z,62.8
2017-07-20T18:56:04.535Z,62.3
2017-07-20T18:58:36.279Z,62.1
2017-07-20T19:01:07.984Z,62.1
2017-07-20T19:03:39.718Z,62.4
2017-07-20T19:06:11.552Z,62.1
2017-07-20T19:08:43.475Z,62.2
2017-07-20T19:11:15.427Z,62.7
2017-07-20T19:13:47.325Z,62.7
2017-07-20T19:16:20.525Z,62.0
2017-07-20T19:18:52.275Z,62.1
2017-07-20T19:21:23.997Z,62.0
2017-07-20T19:23:55.815Z,61.7
2017-07-20T19:26:27.557Z,61.6
2017-07-20T19:28:59.296Z,61.5
2017-07-20T19:31:31.178Z,61.6
2017-07-20T19:34:02.929Z,62.0
2017-07-20T19:36:34.642Z,62.0
2017-07-20T19:39:06.376Z,63.3
2017-07-20T19:41:38.109Z,62.9
2017-07-20T19:44:09.871Z,64.0
2017-07-20T19:46:41.669Z,64.5
2017-07-20T19:49:13.428Z,65.1
2017-07-20T19:51:45.143Z,64.9
2017-07-20T19:54:17.024Z,64.3
2017-07-20T19:56:48.788Z,64.5
2017-07-20T19:59:20.629Z,64.7
2017-07-20T20:01:52.333Z,64.7
2017-07-20T20:04:24.356Z,64.0
2017-07-20T20:06:56.114Z,64.8
2017-07-20T20:09:27.912Z,64.3
2017-07-20T20:12:02.182Z,64.8
2017-07-20T20:14:35.137Z,65.5
2017-07-20T20:17:06.835Z,65.1
2017-07-20T20:19:38.577Z,64.5
2017-07-20T20:22:10.278Z,64.5
2017-07-20T20:24:42.039Z,64.4
2017-07-20T20:27:13.815Z,64.7
2017-07-20T20:29:45.546Z,64.8
2017-07-20T20:32:17.242Z,65.5
2017-07-20T20:34:48.972Z,64.7
2017-07-20T20:37:20.798Z,65.1
2017-07-20T20:39:53.363Z,64.5
2017-07-20T20:42:25.093Z,64.5
2017-07-20T20:44:56.818Z,66.8
2017-07-20T20:47:28.719Z,63.9
2017-07-20T20:50:00.469Z,64.1
2017-07-20T20:52:33.480Z,63.8
2017-07-20T20:55:05.226Z,63.8
2017-07-20T20:57:36.925Z,63.9
2017-07-20T21:00:08.681Z,64.1
2017-07-20T21:02:40.406Z,63.9
2017-07-20T21:05:13.174Z,63.9
2017-07-20T21:07:45.342Z,64.9
2017-07-20T21:10:17.421Z,64.3
2017-07-20T21:12:49.489Z,64.5
2017-07-20T21:15:21.407Z,64.9
2017-07-20T21:17:53.486Z,64.4
2017-07-20T21:20:25.256Z,64.8
2017-07-20T21:22:58.036Z,64.9
2017-07-20T21:25:29.793Z,64.5
2017-07-20T21:28:01.533Z,64.8
2017-07-20T21:30:33.586Z,64.7
2017-07-20T21:33:05.290Z,64.7
2017-07-20T21:35:37.019Z,64.8
2017-07-20T21:38:08.823Z,64.5
2017-07-20T21:40:40.572Z,65.0
2017-07-20T21:43:12.309Z,65.4
2017-07-20T21:45:44.063Z,65.5
2017-07-20T21:48:15.803Z,65.6
2017-07-20T21:50:47.546Z,65.6
2017-07-20T21:53:20.411Z,65.3
2017-07-20T21:55:52.454Z,65.3
2017-07-20T21:58:24.194Z,65.3
2017-07-20T22:00:55.955Z,65.1
2017-07-20T22:03:27.784Z,65.3
2017-07-20T22:05:59.549Z,64.9
2017-07-20T22:08:31.305Z,65.2
2017-07-20T22:11:03.158Z,65.9
2017-07-20T22:13:34.862Z,65.1
2017-07-20T22:16:06.667Z,65.0
2017-07-20T22:18:38.384Z,65.2
2017-07-20T22:21:10.118Z,65.5
2017-07-20T22:23:42.813Z,64.4
2017-07-20T22:26:14.662Z,65.6
2017-07-20T22:28:46.377Z,64.5
2017-07-20T22:31:19.080Z,64.9
2017-07-20T22:33:50.794Z,65.4
2017-07-20T22:36:23.051Z,64.9
2017-07-20T22:38:54.753Z,64.7
2017-07-20T22:41:26.494Z,64.8
2017-07-20T22:43:58.197Z,64.6
2017-07-20T22:46:29.930Z,64.7
2017-07-20T22:49:01.622Z,64.8
2017-07-20T22:51:33.359Z,64.2
2017-07-20T22:54:05.071Z,64.1
2017-07-20T22:56:36.813Z,63.8
2017-07-20T22:59:08.545Z,63.6
2017-07-20T23:01:40.311Z,63.7
2017-07-20T23:04:12.053Z,63.9
2017-07-20T23:06:43.786Z,63.2
2017-07-20T23:09:15.512Z,64.0
2017-07-20T23:11:47.287Z,63.2
2017-07-20T23:14:19.001Z,63.5
2017-07-20T23:16:50.786Z,63.4
2017-07-20T23:19:22.513Z,63.6
2017-07-20T23:21:54.248Z,63.0
2017-07-20T23:24:25.962Z,63.1
2017-07-20T23:26:57.720Z,62.7
2017-07-20T23:29:29.442Z,62.8
2017-07-20T23:32:01.185Z,63.2
2017-07-20T23:34:32.901Z,62.5
2017-07-20T23:37:04.679Z,62.9
2017-07-20T23:39:36.407Z,63.2
2017-07-20T23:42:08.175Z,63.1
2017-07-20T23:44:39.870Z,63.1
2017-07-20T23:47:11.605Z,62.9
2017-07-20T23:49:43.336Z,62.9
2017-07-20T23:52:15.074Z,63.1
2017-07-20T23:54:46.772Z,63.1
2017-07-20T23:57:18.510Z,62.7
2017-07-20T23:59:50.249Z,62.4
